Time;durP1;ratioP1;P1;durP2;ratioP2;P2;SDS_P1;SDS_P2;PMS_P1;PMS_P2;Temp;Humidity;BMP_temperature;BMP_pressure;BME280_temperature;BME280_humidity;BME280_pressure;Samples;Min_cycle;Max_cycle;Signal;HPM_P1;HPM_P2
2022/11/17 00:00:31;;;;;;;4.28;2.80;;;13.40;65.20;;;;;;5026988;28;20018;-73
2022/11/17 00:02:57;;;;;;;2.50;2.30;;;13.50;65.20;;;;;;5026813;28;20454;-73
2022/11/17 00:05:23;;;;;;;3.00;2.55;;;13.50;65.20;;;;;;5026775;28;20033;-72
2022/11/17 00:07:49;;;;;;;3.00;2.70;;;13.50;65.20;;;;;;5026811;28;20076;-72
2022/11/17 00:10:16;;;;;;;2.88;2.63;;;13.50;65.20;;;;;;5026730;28;20202;-73
2022/11/17 00:15:26;;;;;;;3.40;2.58;;;13.40;65.10;;;;;;5026632;28;20017;-73
2022/11/17 00:23:22;;;;;;;3.33;2.45;;;13.40;65.20;;;;;;5026515;28;20093;-73
2022/11/17 00:25:48;;;;;;;4.05;2.80;;;13.40;65.10;;;;;;5026382;28;20028;-73
2022/11/17 00:28:14;;;;;;;3.17;2.88;;;13.50;65.20;;;;;;5026406;28;20022;-74
2022/11/17 00:36:08;;;;;;;2.63;2.42;;;13.40;65.20;;;;;;5026251;28;20020;-74
2022/11/17 00:38:34;;;;;;;2.65;2.38;;;13.40;65.20;;;;;;5026173;28;20045;-73
2022/11/17 00:41:00;;;;;;;3.00;2.50;;;13.40;65.20;;;;;;5026035;28;20120;-74
2022/11/17 00:43:25;;;;;;;3.10;2.53;;;13.40;65.20;;;;;;5026152;28;20022;-73
2022/11/17 00:45:51;;;;;;;3.38;2.65;;;13.40;65.20;;;;;;5025977;28;20026;-74
2022/11/17 00:48:17;;;;;;;2.60;2.40;;;13.40;65.20;;;;;;5025960;28;20076;-73
2022/11/17 00:50:43;;;;;;;3.53;2.72;;;13.40;65.10;;;;;;5025986;28;20028;-73
2022/11/17 00:53:08;;;;;;;4.15;2.70;;;13.40;65.10;;;;;;5025857;28;20205;-73
2022/11/17 00:55:34;;;;;;;3.10;2.60;;;13.40;65.20;;;;;;5025855;28;20322;-73
2022/11/17 00:58:00;;;;;;;3.20;2.90;;;13.40;65.10;;;;;;5025847;28;20018;-73
2022/11/17 01:00:26;;;;;;;2.80;2.40;;;13.40;65.20;;;;;;5025775;28;20021;-74
2022/11/17 01:02:52;;;;;;;2.88;2.58;;;13.40;65.20;;;;;;5025721;28;20077;-73
2022/11/17 01:05:17;;;;;;;3.20;2.90;;;13.40;65.80;;;;;;5025650;28;20084;-74
2022/11/17 01:07:43;;;;;;;2.58;2.28;;;13.40;65.20;;;;;;5025635;28;20014;-73
2022/11/17 01:10:09;;;;;;;3.40;2.63;;;13.40;65.20;;;;;;5025561;28;20050;-73
2022/11/17 01:12:35;;;;;;;3.58;3.08;;;13.50;65.20;;;;;;5025514;28;20014;-72
2022/11/17 01:15:01;;;;;;;2.80;2.47;;;13.40;65.10;;;;;;5025504;28;20081;-73
2022/11/17 01:17:26;;;;;;;3.22;2.40;;;13.50;65.20;;;;;;5025448;28;20021;-73
2022/11/17 01:19:52;;;;;;;2.72;2.53;;;13.50;65.20;;;;;;5025459;28;20036;-72
2022/11/17 01:22:18;;;;;;;2.65;2.45;;;13.40;65.10;;;;;;5025352;28;20060;-73
2022/11/17 01:24:44;;;;;;;2.20;2.00;;;13.40;65.20;;;;;;5025254;28;20049;-74
2022/11/17 01:27:09;;;;;;;4.70;2.38;;;13.40;65.20;;;;;;5025252;28;20014;-73
2022/11/17 01:29:35;;;;;;;3.17;2.80;;;13.40;65.20;;;;;;5025246;28;20022;-73
2022/11/17 01:32:01;;;;;;;3.03;2.47;;;13.40;65.10;;;;;;5025243;28;20063;-73
2022/11/17 01:34:27;;;;;;;2.60;2.40;;;13.40;65.20;;;;;;5025186;28;20022;-73
2022/11/17 01:39:37;;;;;;;2.67;2.47;;;13.40;65.20;;;;;;5024901;28;20424;-73
2022/11/17 01:42:16;;;;;;;3.20;2.53;;;13.40;65.20;;;;;;5024448;28;20034;-73
2022/11/17 01:45:02;;;;;;;3.17;2.88;;;13.40;65.10;;;;;;5024891;28;20033;-74
2022/11/17 01:47:46;;;;;;;2.95;2.65;;;13.40;65.20;;;;;;5024875;28;20043;-74
2022/11/17 01:50:19;;;;;;;2.85;2.53;;;13.40;65.20;;;;;;5024896;28;20025;-75
2022/11/17 01:52:47;;;;;;;2.75;2.42;;;13.40;65.20;;;;;;5024903;28;20048;-74
2022/11/17 01:55:13;;;;;;;2.90;2.60;;;13.40;65.10;;;;;;5024799;28;20480;-72
2022/11/17 01:57:57;;;;;;;2.80;2.50;;;13.40;65.10;;;;;;5024798;28;20415;-72
2022/11/17 02:00:23;;;;;;;3.00;2.70;;;13.40;65.20;;;;;;5024726;28;20080;-73
2022/11/17 02:02:50;;;;;;;3.00;2.40;;;13.40;65.20;;;;;;5024649;28;20335;-73
2022/11/17 02:05:38;;;;;;;3.72;2.92;;;13.40;65.20;;;;;;5024505;28;20030;-74
2022/11/17 02:08:05;;;;;;;3.70;2.80;;;13.40;65.20;;;;;;5024639;28;20021;-74
2022/11/17 02:10:33;;;;;;;4.00;2.70;;;13.40;65.10;;;;;;5024524;28;20362;-73
2022/11/17 02:13:00;;;;;;;2.85;2.53;;;13.40;65.10;;;;;;5024463;28;20018;-73
2022/11/17 02:15:29;;;;;;;4.07;2.88;;;13.40;65.00;;;;;;5024412;28;20029;-73
2022/11/17 02:17:56;;;;;;;2.85;2.47;;;13.40;65.10;;;;;;5024395;28;20089;-73
2022/11/17 02:20:33;;;;;;;3.80;2.65;;;13.40;65.10;;;;;;5024331;28;20048;-73
2022/11/17 02:23:24;;;;;;;2.65;2.38;;;13.40;65.20;;;;;;5024336;28;20025;-73
2022/11/17 02:26:20;;;;;;;3.28;2.70;;;13.40;65.20;;;;;;5003527;28;20029;-74
2022/11/17 02:29:01;;;;;;;2.78;2.47;;;13.40;65.20;;;;;;5024254;28;20041;-72
2022/11/17 02:31:43;;;;;;;3.38;2.63;;;13.40;65.20;;;;;;5024229;28;20029;-73
2022/11/17 02:34:38;;;;;;;3.20;2.40;;;13.40;65.20;;;;;;5024145;28;20029;-73
2022/11/17 02:37:21;;;;;;;2.60;2.35;;;13.40;65.20;;;;;;5015168;28;20037;-74
2022/11/17 02:39:59;;;;;;;3.15;2.80;;;13.40;65.20;;;;;;5023520;28;20081;-73
2022/11/17 02:45:20;;;;;;;3.42;2.72;;;13.40;65.10;;;;;;5023930;28;20057;-74
2022/11/17 02:47:48;;;;;;;3.53;3.17;;;13.40;65.80;;;;;;5023999;28;20046;-73
2022/11/17 02:50:16;;;;;;;3.33;2.67;;;13.40;65.20;;;;;;5023926;28;20014;-74
2022/11/17 02:52:42;;;;;;;3.05;2.85;;;13.40;65.10;;;;;;5023930;28;20029;-73
2022/11/17 02:55:09;;;;;;;2.78;2.40;;;13.40;65.10;;;;;;5023622;28;20081;-73
2022/11/17 02:57:38;;;;;;;2.83;2.50;;;13.40;65.10;;;;;;5023859;28;20022;-73
2022/11/17 03:00:06;;;;;;;3.10;2.55;;;13.40;65.20;;;;;;5023863;28;20060;-73
2022/11/17 03:03:04;;;;;;;3.47;2.90;;;13.40;65.10;;;;;;5023726;28;20081;-73
2022/11/17 03:06:02;;;;;;;2.50;2.22;;;13.40;65.10;;;;;;5023715;28;20041;-74
2022/11/17 03:08:52;;;;;;;2.60;2.40;;;13.40;65.10;;;;;;5023729;28;20029;-73
2022/11/17 03:11:25;;;;;;;2.53;2.33;;;13.40;65.10;;;;;;5023711;28;20064;-74
2022/11/17 03:14:03;;;;;;;2.63;2.42;;;13.40;65.10;;;;;;5023689;28;20022;-74
2022/11/17 03:17:01;;;;;;;3.35;2.72;;;13.40;65.10;;;;;;5023732;28;20124;-73
2022/11/17 03:19:56;;;;;;;2.70;2.50;;;13.40;65.20;;;;;;5021739;28;20041;-74
2022/11/17 03:22:54;;;;;;;3.05;2.72;;;13.40;65.20;;;;;;5021578;28;20042;-73
2022/11/17 03:25:22;;;;;;;3.72;2.97;;;13.40;65.20;;;;;;5015683;28;20037;-73
2022/11/17 03:27:52;;;;;;;2.72;2.42;;;13.40;65.20;;;;;;5023521;28;20072;-72
2022/11/17 03:30:21;;;;;;;3.25;2.63;;;13.40;65.20;;;;;;5023486;28;20018;-73
2022/11/17 03:32:51;;;;;;;3.10;2.80;;;13.40;65.20;;;;;;5023496;28;20024;-72
2022/11/17 03:35:23;;;;;;;5.40;2.95;;;13.30;65.20;;;;;;5023799;28;20018;-73
2022/11/17 03:37:54;;;;;;;3.55;2.95;;;13.40;65.20;;;;;;5023748;28;20018;-73
2022/11/17 03:40:24;;;;;;;3.17;2.70;;;13.30;65.30;;;;;;5023292;28;20049;-73
2022/11/17 03:42:55;;;;;;;2.80;2.45;;;13.40;65.30;;;;;;5023421;28;20256;-73
2022/11/17 03:45:27;;;;;;;2.70;2.28;;;13.40;65.20;;;;;;5023372;28;20335;-72
2022/11/17 03:48:01;;;;;;;2.65;2.42;;;13.30;65.10;;;;;;5023397;28;20029;-73
2022/11/17 03:50:33;;;;;;;3.08;2.35;;;13.30;65.10;;;;;;5023391;28;20040;-73
2022/11/17 03:53:03;;;;;;;2.85;2.50;;;13.30;65.10;;;;;;5023350;28;20013;-73
2022/11/17 03:55:43;;;;;;;2.80;2.50;;;13.40;65.20;;;;;;5023322;28;20021;-73
2022/11/17 03:58:15;;;;;;;3.03;2.60;;;13.30;65.20;;;;;;5023289;28;20041;-74
2022/11/17 04:00:43;;;;;;;3.55;2.63;;;13.30;65.20;;;;;;5023306;28;20021;-73
2022/11/17 04:03:09;;;;;;;2.60;2.40;;;13.30;65.30;;;;;;5023200;28;20022;-73
2022/11/17 04:05:35;;;;;;;2.78;2.58;;;13.30;65.20;;;;;;5023611;28;20037;-73
2022/11/17 04:08:01;;;;;;;3.03;2.72;;;13.30;65.10;;;;;;5026840;28;20045;-74
2022/11/17 04:10:26;;;;;;;2.58;2.20;;;13.30;65.10;;;;;;5026769;28;20089;-73
2022/11/17 04:15:57;;;;;;;2.55;2.28;;;13.30;65.10;;;;;;5026744;28;20068;-74
2022/11/17 04:18:24;;;;;;;3.15;2.85;;;13.40;65.20;;;;;;5026626;28;20025;-74
2022/11/17 04:20:55;;;;;;;2.47;2.28;;;13.30;65.30;;;;;;5026547;28;20014;-73
2022/11/17 04:23:23;;;;;;;2.78;2.50;;;13.30;65.30;;;;;;5026599;28;20024;-73
2022/11/17 04:28:42;;;;;;;3.03;2.42;;;13.30;65.10;;;;;;5026495;28;20021;-73
2022/11/17 04:31:11;;;;;;;2.38;2.17;;;13.30;65.10;;;;;;5026379;28;20041;-74
2022/11/17 04:33:42;;;;;;;3.42;2.75;;;13.30;65.10;;;;;;5026329;28;20021;-74
2022/11/17 04:36:10;;;;;;;2.90;2.60;;;13.30;65.10;;;;;;5026378;28;20021;-73
2022/11/17 04:38:39;;;;;;;2.40;2.20;;;13.30;65.10;;;;;;5026257;28;20063;-73
2022/11/17 04:43:51;;;;;;;2.92;2.42;;;13.30;65.10;;;;;;5026166;28;19952;-74
2022/11/17 04:46:18;;;;;;;3.33;2.60;;;13.40;65.20;;;;;;5026041;28;20017;-72
2022/11/17 04:48:45;;;;;;;2.83;2.35;;;13.40;65.20;;;;;;5026104;28;20017;-73
2022/11/17 04:51:11;;;;;;;3.38;2.50;;;13.30;65.10;;;;;;5024858;28;20022;-73
2022/11/17 04:53:37;;;;;;;3.15;2.65;;;13.30;65.10;;;;;;5025984;28;20014;-74
2022/11/17 04:56:03;;;;;;;2.40;2.20;;;13.30;65.10;;;;;;5025881;28;20025;-73
2022/11/17 04:58:30;;;;;;;3.13;2.67;;;13.30;65.10;;;;;;5025829;28;20087;-73
2022/11/17 05:01:11;;;;;;;3.15;2.38;;;13.30;65.10;;;;;;5025845;28;20032;-73
2022/11/17 05:03:58;;;;;;;2.60;2.40;;;13.30;65.20;;;;;;5025757;28;20018;-73
2022/11/17 05:06:33;;;;;;;2.95;2.47;;;13.30;65.10;;;;;;5025697;28;20306;-74
2022/11/17 05:09:01;;;;;;;2.55;2.17;;;13.30;65.10;;;;;;5025708;28;20240;-73
2022/11/17 05:14:15;;;;;;;2.38;2.17;;;13.30;65.20;;;;;;5025620;28;20021;-73
2022/11/17 05:19:27;;;;;;;2.60;2.35;;;13.30;65.20;;;;;;5025140;28;20139;-74
2022/11/17 05:21:53;;;;;;;4.03;2.85;;;13.30;65.20;;;;;;5025463;28;20210;-74
2022/11/17 05:24:19;;;;;;;3.38;2.50;;;13.30;65.20;;;;;;5025376;28;20328;-74
2022/11/17 05:26:47;;;;;;;2.67;2.47;;;13.30;65.20;;;;;;5025265;28;20313;-73
2022/11/17 05:29:15;;;;;;;2.78;2.55;;;13.30;65.30;;;;;;5025334;28;20022;-73
2022/11/17 05:31:41;;;;;;;2.72;2.15;;;13.30;65.20;;;;;;5025255;28;20017;-73
2022/11/17 05:34:09;;;;;;;2.33;2.13;;;13.30;65.30;;;;;;5025196;28;20072;-73
2022/11/17 05:36:35;;;;;;;2.20;2.00;;;13.30;65.10;;;;;;5025178;28;20276;-72
2022/11/17 05:39:01;;;;;;;4.20;2.67;;;13.30;65.10;;;;;;5024943;28;20112;-73
2022/11/17 05:41:28;;;;;;;3.15;2.53;;;13.30;65.10;;;;;;5025148;28;20085;-76
2022/11/17 05:43:54;;;;;;;2.58;2.38;;;13.30;65.10;;;;;;5024991;28;20367;-73
2022/11/17 05:46:21;;;;;;;3.00;2.70;;;13.30;65.20;;;;;;5024915;28;20026;-73
2022/11/17 05:48:51;;;;;;;2.60;2.13;;;13.30;65.30;;;;;;5024959;28;20024;-72
2022/11/17 05:51:19;;;;;;;3.63;2.47;;;13.30;65.30;;;;;;5024927;28;20021;-73
2022/11/17 05:53:45;;;;;;;3.17;2.88;;;13.30;66.00;;;;;;5024834;28;20174;-73
2022/11/17 05:56:23;;;;;;;2.92;2.63;;;13.30;65.30;;;;;;5024798;28;20119;-72
2022/11/17 05:58:53;;;;;;;2.72;2.53;;;13.30;65.30;;;;;;5024685;28;20032;-73
2022/11/17 06:01:20;;;;;;;3.03;2.72;;;13.30;65.30;;;;;;5024791;28;20028;-74
2022/11/17 06:03:53;;;;;;;3.53;2.20;;;13.30;65.10;;;;;;5024688;28;20025;-73
2022/11/17 06:06:20;;;;;;;2.75;2.50;;;13.30;65.30;;;;;;5024600;28;20022;-72
2022/11/17 06:08:49;;;;;;;3.38;3.08;;;13.30;65.30;;;;;;5024623;28;20018;-74
2022/11/17 06:11:17;;;;;;;2.33;2.08;;;13.30;65.30;;;;;;5024536;28;20081;-73
2022/11/17 06:13:43;;;;;;;2.60;2.40;;;13.30;65.10;;;;;;5039821;28;20328;-73
2022/11/17 06:16:13;;;;;;;3.03;2.67;;;13.30;65.10;;;;;;5024429;28;20033;-74
2022/11/17 06:18:45;;;;;;;2.60;2.28;;;13.30;65.10;;;;;;5024366;28;20020;-75
2022/11/17 06:21:14;;;;;;;2.83;2.53;;;13.30;65.20;;;;;;5024460;28;20270;-74
2022/11/17 06:23:40;;;;;;;2.75;2.47;;;13.30;65.10;;;;;;5024297;28;20049;-74
2022/11/17 06:26:08;;;;;;;2.85;2.30;;;13.30;65.10;;;;;;5024202;28;20026;-74
2022/11/17 06:28:40;;;;;;;3.05;2.42;;;13.30;65.10;;;;;;5039163;28;20209;-74
2022/11/17 06:31:06;;;;;;;2.92;2.63;;;13.40;65.10;;;;;;5024219;28;20010;-73
2022/11/17 06:33:34;;;;;;;2.83;2.58;;;13.40;65.10;;;;;;5024169;28;20368;-73
2022/11/17 06:36:03;;;;;;;2.25;2.00;;;13.40;65.10;;;;;;5024115;28;20040;-73
2022/11/17 06:38:30;;;;;;;2.72;2.50;;;13.40;65.00;;;;;;5024136;28;20021;-72
2022/11/17 06:40:56;;;;;;;2.83;2.55;;;13.40;65.10;;;;;;5023854;28;20044;-74
2022/11/17 06:43:22;;;;;;;2.50;2.30;;;13.40;65.00;;;;;;5023977;28;20030;-73
2022/11/17 06:45:47;;;;;;;2.97;2.40;;;13.40;65.00;;;;;;5023947;28;20025;-73
2022/11/17 06:48:15;;;;;;;2.95;2.60;;;13.40;65.00;;;;;;5024005;28;20049;-72
2022/11/17 06:50:42;;;;;;;2.40;2.20;;;13.40;65.00;;;;;;5023972;28;20014;-73
2022/11/17 06:53:10;;;;;;;2.28;2.08;;;13.40;65.00;;;;;;5023940;28;20026;-74
2022/11/17 06:55:36;;;;;;;2.58;2.38;;;13.40;65.00;;;;;;5023814;28;20317;-73
2022/11/17 06:58:10;;;;;;;2.63;2.42;;;13.30;64.90;;;;;;5023851;28;20084;-73
2022/11/17 07:00:37;;;;;;;2.67;2.40;;;13.30;65.00;;;;;;5023839;28;20022;-73
2022/11/17 07:03:08;;;;;;;2.85;1.95;;;13.30;64.90;;;;;;5023780;28;20021;-74
2022/11/17 07:05:36;;;;;;;2.70;2.50;;;13.40;65.00;;;;;;5023795;28;20018;-74
2022/11/17 07:08:04;;;;;;;3.45;2.30;;;13.40;65.00;;;;;;5023743;28;20025;-72
2022/11/17 07:10:31;;;;;;;2.50;2.30;;;13.40;65.00;;;;;;5023637;28;20014;-73
2022/11/17 07:12:57;;;;;;;3.00;2.47;;;13.30;65.00;;;;;;5023677;28;20029;-75
2022/11/17 07:15:25;;;;;;;3.42;2.97;;;13.40;65.00;;;;;;5023670;28;20041;-75
2022/11/17 07:17:51;;;;;;;2.63;2.42;;;13.40;65.00;;;;;;5023642;28;20026;-73
2022/11/17 07:20:17;;;;;;;2.90;2.53;;;13.40;65.00;;;;;;5023578;28;20029;-73
2022/11/17 07:22:43;;;;;;;2.47;2.28;;;13.30;65.00;;;;;;5023554;28;20344;-72
2022/11/17 07:25:10;;;;;;;3.50;2.75;;;13.30;65.10;;;;;;5023541;28;20018;-73
2022/11/17 07:27:36;;;;;;;3.17;2.70;;;13.30;65.10;;;;;;5022468;28;20025;-73
2022/11/17 07:30:06;;;;;;;3.28;2.63;;;13.30;65.10;;;;;;5023620;28;20041;-73
2022/11/17 07:32:33;;;;;;;2.47;2.25;;;13.30;65.10;;;;;;5023490;28;20021;-74
2022/11/17 07:35:00;;;;;;;2.40;2.20;;;13.30;65.10;;;;;;5023523;28;20013;-74
2022/11/17 07:37:30;;;;;;;2.97;2.55;;;13.30;65.10;;;;;;5022338;28;20022;-73
2022/11/17 07:39:56;;;;;;;2.60;2.38;;;13.30;65.10;;;;;;5023392;28;20119;-73
2022/11/17 07:42:22;;;;;;;2.88;2.30;;;13.30;65.10;;;;;;5026754;28;20026;-74
2022/11/17 07:44:48;;;;;;;2.75;2.40;;;13.30;65.10;;;;;;5027168;28;20076;-73
2022/11/17 07:47:14;;;;;;;3.22;2.47;;;13.30;65.10;;;;;;5027222;28;20021;-73
2022/11/17 07:49:40;;;;;;;2.60;2.30;;;13.40;65.10;;;;;;5027187;28;20056;-73
2022/11/17 07:52:06;;;;;;;2.97;2.60;;;13.40;65.20;;;;;;5027175;28;20026;-73
2022/11/17 07:54:32;;;;;;;3.35;2.60;;;13.40;65.10;;;;;;5027133;28;20029;-73
2022/11/17 07:56:57;;;;;;;2.35;2.15;;;13.40;65.00;;;;;;5027033;28;20343;-73
2022/11/17 07:59:23;;;;;;;2.72;2.35;;;13.40;65.10;;;;;;5027053;28;20025;-74
2022/11/17 08:01:49;;;;;;;2.38;2.15;;;13.40;64.90;;;;;;5026960;28;20026;-73
2022/11/17 08:04:14;;;;;;;2.88;2.47;;;13.40;64.90;;;;;;5026918;28;20018;-73
2022/11/17 08:06:40;;;;;;;2.38;2.17;;;13.40;65.00;;;;;;5026785;28;20030;-72
2022/11/17 08:09:09;;;;;;;3.08;2.85;;;13.40;64.90;;;;;;5026827;28;20344;-74
2022/11/17 08:11:35;;;;;;;2.50;1.90;;;13.40;65.10;;;;;;5026792;28;20029;-73
2022/11/17 08:14:01;;;;;;;2.88;2.58;;;13.40;65.00;;;;;;5026775;28;20017;-73
2022/11/17 08:16:29;;;;;;;3.05;2.28;;;13.40;65.00;;;;;;5026672;28;20025;-73
2022/11/17 08:18:58;;;;;;;2.65;2.42;;;13.40;65.00;;;;;;5026742;28;20017;-72
2022/11/17 08:21:24;;;;;;;3.10;2.35;;;13.40;65.00;;;;;;5026619;28;20088;-73
2022/11/17 08:23:51;;;;;;;2.90;2.60;;;13.40;65.00;;;;;;5026531;28;20028;-73
2022/11/17 08:26:19;;;;;;;3.08;2.60;;;13.40;65.20;;;;;;5025303;28;20022;-74
2022/11/17 08:28:45;;;;;;;2.30;2.10;;;13.30;65.10;;;;;;5026490;28;20044;-73
2022/11/17 08:31:11;;;;;;;2.65;2.22;;;13.40;65.10;;;;;;5026380;28;20041;-75
2022/11/17 08:33:37;;;;;;;3.38;2.38;;;13.40;65.10;;;;;;5026403;28;20186;-74
2022/11/17 08:36:05;;;;;;;2.60;2.40;;;13.40;65.10;;;;;;5026314;28;20025;-73
2022/11/17 08:38:32;;;;;;;3.63;2.70;;;13.40;65.10;;;;;;5026277;28;20032;-72
2022/11/17 08:41:03;;;;;;;2.80;2.60;;;13.40;65.20;;;;;;5026086;28;20077;-74
2022/11/17 08:43:29;;;;;;;2.33;2.13;;;13.30;65.10;;;;;;5026161;28;20209;-73
2022/11/17 08:45:55;;;;;;;2.55;2.30;;;13.40;65.10;;;;;;5026026;28;20072;-73
2022/11/17 08:48:21;;;;;;;2.90;2.38;;;13.30;65.10;;;;;;5026077;28;20045;-72
2022/11/17 08:50:48;;;;;;;2.88;2.17;;;13.40;65.10;;;;;;5026023;28;20057;-73
2022/11/17 08:53:15;;;;;;;3.08;2.75;;;13.40;65.10;;;;;;5025687;28;20332;-73
2022/11/17 08:55:41;;;;;;;2.65;2.35;;;13.40;65.10;;;;;;5025954;28;20085;-72
2022/11/17 08:58:08;;;;;;;3.10;2.80;;;13.40;65.10;;;;;;5025917;28;20340;-74
2022/11/17 09:00:34;;;;;;;2.58;2.38;;;13.40;65.10;;;;;;5025817;28;20029;-73
2022/11/17 09:03:04;;;;;;;2.38;2.10;;;13.40;65.00;;;;;;5025811;28;20385;-73
2022/11/17 09:05:30;;;;;;;2.58;2.30;;;13.40;65.00;;;;;;5025666;28;20313;-74
2022/11/17 09:07:57;;;;;;;2.70;2.10;;;13.40;64.90;;;;;;5025706;28;20021;-74
2022/11/17 09:10:23;;;;;;;2.53;2.15;;;13.40;65.00;;;;;;5025650;28;20416;-72
2022/11/17 09:12:53;;;;;;;2.42;2.10;;;13.40;65.10;;;;;;5025583;28;20063;-74
2022/11/17 09:15:19;;;;;;;2.35;2.15;;;13.40;65.00;;;;;;5024400;28;20049;-72
2022/11/17 09:17:46;;;;;;;2.38;2.17;;;13.40;64.90;;;;;;5025629;28;20076;-73
2022/11/17 09:20:13;;;;;;;2.70;2.45;;;13.40;64.90;;;;;;5025565;28;20017;-73
2022/11/17 09:22:39;;;;;;;2.58;2.38;;;13.50;64.90;;;;;;5040817;28;20029;-73
2022/11/17 09:25:05;;;;;;;2.67;2.47;;;13.50;64.90;;;;;;5025284;28;20017;-73
2022/11/17 09:27:31;;;;;;;3.90;2.40;;;13.40;64.90;;;;;;5025363;28;20026;-72
2022/11/17 09:29:57;;;;;;;3.25;2.78;;;13.50;65.00;;;;;;5025301;28;20021;-73
2022/11/17 09:32:23;;;;;;;2.40;2.20;;;13.50;64.90;;;;;;5025243;28;20026;-73
2022/11/17 09:34:48;;;;;;;2.60;2.40;;;13.50;64.90;;;;;;5025265;28;20021;-72
2022/11/17 09:37:14;;;;;;;2.47;2.28;;;13.50;64.70;;;;;;5025213;28;20068;-73
2022/11/17 09:39:40;;;;;;;3.08;2.45;;;13.50;64.80;;;;;;5024964;28;20109;-73
2022/11/17 09:42:11;;;;;;;2.72;2.33;;;13.50;64.90;;;;;;5040465;28;20022;-74
2022/11/17 09:44:43;;;;;;;2.35;2.15;;;13.50;64.80;;;;;;5025055;28;20103;-73
2022/11/17 09:47:11;;;;;;;2.25;2.05;;;13.50;64.70;;;;;;5024950;28;20093;-73
2022/11/17 09:50:03;;;;;;;2.40;2.20;;;13.50;64.70;;;;;;5024958;28;20024;-72
2022/11/17 09:52:44;;;;;;;3.63;2.80;;;13.50;64.70;;;;;;5024862;28;20309;-75
2022/11/17 09:55:35;;;;;;;2.63;2.13;;;13.50;64.70;;;;;;5024845;28;20022;-74
2022/11/17 09:58:31;;;;;;;2.38;2.17;;;13.50;64.90;;;;;;5024814;28;20028;-73
2022/11/17 10:00:57;;;;;;;2.50;2.30;;;13.50;64.80;;;;;;5024751;28;20025;-71
2022/11/17 10:03:32;;;;;;;2.38;2.13;;;13.50;64.80;;;;;;5023996;28;20109;-73
2022/11/17 10:06:02;;;;;;;2.55;2.20;;;13.50;64.80;;;;;;5024597;28;20067;-73
2022/11/17 10:08:30;;;;;;;2.63;2.42;;;13.50;64.90;;;;;;5024593;28;20022;-74
2022/11/17 10:10:56;;;;;;;3.35;2.42;;;13.50;64.90;;;;;;5024580;28;20014;-72
2022/11/17 10:13:34;;;;;;;2.63;2.30;;;13.40;65.00;;;;;;5023331;28;20073;-73
2022/11/17 10:16:11;;;;;;;2.83;2.30;;;13.50;65.00;;;;;;5024458;28;20021;-73
2022/11/17 10:18:38;;;;;;;2.90;2.60;;;13.40;65.00;;;;;;5024478;28;20320;-74
2022/11/17 10:21:05;;;;;;;3.13;2.83;;;13.40;65.10;;;;;;5024376;28;20064;-73
2022/11/17 10:23:58;;;;;;;2.88;2.42;;;13.40;65.00;;;;;;5024352;28;20397;-72
2022/11/17 10:26:24;;;;;;;2.47;2.20;;;13.50;65.10;;;;;;5019798;28;20061;-74
2022/11/17 10:29:11;;;;;;;3.00;2.60;;;13.50;65.10;;;;;;5024245;28;20237;-73
2022/11/17 10:31:43;;;;;;;2.28;2.08;;;13.50;65.10;;;;;;5024192;28;20045;-73
2022/11/17 10:34:11;;;;;;;2.97;2.47;;;13.40;65.20;;;;;;5024230;28;20024;-72
2022/11/17 10:36:46;;;;;;;3.37;2.70;;;13.40;65.20;;;;;;5024146;28;20063;-73
2022/11/17 10:39:33;;;;;;;2.30;2.10;;;13.40;65.20;;;;;;5023984;28;20041;-73
2022/11/17 10:42:12;;;;;;;2.30;2.10;;;13.40;65.20;;;;;;5023918;28;20026;-74
2022/11/17 10:44:40;;;;;;;2.40;2.20;;;13.50;65.20;;;;;;5024062;28;20017;-73
2022/11/17 10:47:28;;;;;;;2.55;2.10;;;13.50;65.00;;;;;;5023899;28;20384;-74
2022/11/17 10:50:26;;;;;;;2.95;2.30;;;13.50;65.00;;;;;;5023933;28;20028;-73
2022/11/17 10:52:53;;;;;;;2.92;2.60;;;13.50;65.00;;;;;;5015829;28;20097;-73
2022/11/17 10:55:27;;;;;;;2.70;2.20;;;13.50;65.00;;;;;;5023878;28;20026;-74
2022/11/17 10:57:57;;;;;;;2.60;2.40;;;13.50;65.10;;;;;;5023902;28;20029;-73
2022/11/17 11:00:28;;;;;;;2.35;2.15;;;13.50;65.10;;;;;;5023814;28;20037;-74
2022/11/17 11:03:04;;;;;;;2.17;1.98;;;13.50;65.00;;;;;;5023824;28;20041;-73
2022/11/17 11:05:30;;;;;;;2.60;2.38;;;13.50;65.10;;;;;;5023693;28;20025;-74
2022/11/17 11:08:18;;;;;;;2.53;2.13;;;13.50;65.10;;;;;;5022582;28;20029;-73
2022/11/17 11:10:49;;;;;;;2.63;2.42;;;13.50;65.00;;;;;;5023797;28;20021;-73
2022/11/17 11:13:33;;;;;;;3.65;2.05;;;13.50;65.10;;;;;;5023769;28;20068;-74
2022/11/17 11:15:59;;;;;;;2.40;2.20;;;13.50;65.00;;;;;;5026613;28;20018;-74
2022/11/17 11:18:27;;;;;;;3.83;2.60;;;13.50;64.90;;;;;;5027831;28;20036;-73
2022/11/17 11:20:59;;;;;;;2.72;2.50;;;13.50;64.80;;;;;;5027731;28;20045;-72
2022/11/17 11:24:00;;;;;;;2.67;2.47;;;13.50;64.90;;;;;;5027657;28;20025;-73
2022/11/17 11:26:34;;;;;;;2.83;2.25;;;13.50;65.00;;;;;;5020602;28;20036;-73
2022/11/17 11:29:03;;;;;;;2.38;2.17;;;13.50;65.00;;;;;;5027659;28;20018;-74
2022/11/17 11:31:52;;;;;;;2.60;2.38;;;13.50;64.90;;;;;;5027557;28;20017;-73
2022/11/17 11:34:43;;;;;;;2.60;2.35;;;13.50;65.00;;;;;;5027491;28;20025;-73
2022/11/17 11:37:11;;;;;;;2.50;2.30;;;13.50;65.00;;;;;;5027441;28;20190;-73
2022/11/17 11:39:49;;;;;;;2.92;2.63;;;13.50;65.00;;;;;;5027172;28;20058;-73
2022/11/17 11:42:26;;;;;;;2.10;1.90;;;13.50;65.00;;;;;;5027390;28;20083;-74
2022/11/17 11:45:04;;;;;;;2.50;2.30;;;13.50;65.00;;;;;;5027323;28;20021;-73
2022/11/17 11:47:45;;;;;;;2.60;2.40;;;13.50;64.90;;;;;;5027221;28;20025;-73
2022/11/17 11:50:20;;;;;;;2.55;2.35;;;13.50;64.90;;;;;;5027252;28;20209;-73
2022/11/17 11:52:56;;;;;;;3.85;2.30;;;13.50;64.90;;;;;;5027178;28;20024;-73
2022/11/17 11:55:32;;;;;;;2.88;2.50;;;13.50;64.90;;;;;;5027031;28;20065;-73
2022/11/17 11:58:13;;;;;;;2.47;2.28;;;13.50;64.90;;;;;;5027100;28;20026;-73
2022/11/17 12:00:43;;;;;;;2.70;2.30;;;13.50;64.80;;;;;;5042414;28;20022;-73
2022/11/17 12:03:12;;;;;;;2.53;2.33;;;13.50;64.70;;;;;;5025769;28;20375;-73
2022/11/17 12:05:52;;;;;;;2.67;2.47;;;13.60;64.70;;;;;;5026822;28;20093;-73
2022/11/17 12:08:31;;;;;;;2.90;2.42;;;13.60;64.60;;;;;;5026893;28;20021;-73
2022/11/17 12:13:56;;;;;;;;;;;13.70;64.50;;;;;;5027198;28;20340;-72
2022/11/17 12:16:30;;;;;;;2.83;2.30;;;13.70;64.40;;;;;;5025567;28;19908;-73
2022/11/17 12:18:56;;;;;;;2.28;1.95;;;13.60;64.40;;;;;;5026712;28;20021;-74
2022/11/17 12:21:23;;;;;;;2.42;2.00;;;13.60;64.60;;;;;;5026613;28;20109;-74
2022/11/17 12:24:07;;;;;;;2.58;2.30;;;13.70;64.60;;;;;;5026570;28;20033;-73
2022/11/17 12:26:33;;;;;;;2.55;2.22;;;13.70;64.50;;;;;;5025749;28;20045;-74
2022/11/17 12:29:18;;;;;;;2.22;2.03;;;13.70;64.50;;;;;;5026448;28;20053;-72
2022/11/17 12:31:48;;;;;;;2.50;2.30;;;13.70;64.20;;;;;;5026410;28;20018;-74
2022/11/17 12:34:35;;;;;;;2.70;2.50;;;13.80;64.10;;;;;;5026409;28;20402;-72
2022/11/17 12:37:04;;;;;;;2.10;1.90;;;13.90;63.90;;;;;;5026315;28;20049;-73
2022/11/17 12:40:00;;;;;;;2.10;1.90;;;13.90;63.80;;;;;;5026064;28;20054;-73
2022/11/17 12:42:29;;;;;;;2.78;2.25;;;14.00;63.40;;;;;;5025427;28;20274;-73
2022/11/17 12:44:59;;;;;;;2.30;2.10;;;14.00;63.50;;;;;;5026152;28;20018;-73
2022/11/17 12:47:33;;;;;;;2.55;2.20;;;14.00;63.60;;;;;;5026422;28;20029;-73
2022/11/17 12:50:19;;;;;;;2.50;2.30;;;14.00;63.70;;;;;;5026090;28;20017;-73
2022/11/17 12:53:05;;;;;;;2.42;2.22;;;13.90;64.10;;;;;;5026124;28;20317;-74
2022/11/17 12:55:31;;;;;;;1.95;1.85;;;13.70;64.50;;;;;;5025981;28;20262;-74
2022/11/17 12:58:09;;;;;;;2.30;2.10;;;13.80;64.50;;;;;;5025909;28;20033;-74
2022/11/17 13:01:00;;;;;;;2.17;1.98;;;14.10;63.80;;;;;;5025920;28;20306;-72
2022/11/17 13:03:51;;;;;;;2.70;2.10;;;14.30;63.00;;;;;;5025874;28;20029;-74
2022/11/17 13:06:18;;;;;;;2.15;1.98;;;14.50;62.60;;;;;;5025707;28;20026;-73
2022/11/17 13:09:07;;;;;;;2.13;1.70;;;14.50;62.40;;;;;;5025741;28;20242;-73
2022/11/17 13:11:34;;;;;;;2.15;1.95;;;14.60;62.00;;;;;;5025752;28;20213;-74
2022/11/17 13:14:14;;;;;;;2.22;2.03;;;14.70;61.60;;;;;;5025595;28;20194;-74
2022/11/17 13:16:49;;;;;;;1.95;1.85;;;14.80;61.40;;;;;;5025601;28;20052;-74
2022/11/17 13:19:35;;;;;;;2.00;1.90;;;14.80;61.40;;;;;;5025623;28;20043;-73
2022/11/17 13:22:17;;;;;;;2.10;1.90;;;14.80;61.30;;;;;;5025593;28;20045;-73
2022/11/17 13:24:46;;;;;;;2.20;2.00;;;14.90;61.10;;;;;;5040892;28;20195;-72
2022/11/17 13:27:23;;;;;;;2.22;1.95;;;14.90;61.00;;;;;;5025310;28;20014;-73
2022/11/17 13:29:50;;;;;;;1.98;1.80;;;14.90;61.00;;;;;;5025322;28;20023;-74
2022/11/17 13:32:19;;;;;;;2.60;2.40;;;14.70;61.60;;;;;;5025273;28;20077;-74
2022/11/17 13:34:51;;;;;;;2.33;2.13;;;14.50;62.20;;;;;;5025265;28;20268;-73
2022/11/17 13:37:20;;;;;;;2.35;2.15;;;14.40;62.50;;;;;;5025239;28;20018;-74
2022/11/17 13:40:20;;;;;;;2.70;2.30;;;14.40;62.90;;;;;;5023967;28;20046;-73
2022/11/17 13:42:47;;;;;;;2.25;2.05;;;14.30;63.20;;;;;;5003073;28;20040;-74
2022/11/17 13:45:14;;;;;;;2.28;2.08;;;14.10;63.60;;;;;;5023791;28;20256;-73